sensor_id;sensor_type;location;lat;lon;timestamp;P1;durP1;ratioP1;P2;durP2;ratioP2
60722;SDS011;46574;52.818;6.516;2023-05-07T00:02:21;13.00;;;11.60;;
60722;SDS011;46574;52.818;6.516;2023-05-07T00:04:47;14.52;;;11.45;;
60722;SDS011;46574;52.818;6.516;2023-05-07T00:07:14;11.32;;;10.23;;
60722;SDS011;46574;52.818;6.516;2023-05-07T00:09:40;11.35;;;10.15;;
60722;SDS011;46574;52.818;6.516;2023-05-07T00:12:06;12.65;;;11.40;;
60722;SDS011;46574;52.818;6.516;2023-05-07T00:14:32;11.35;;;10.02;;
60722;SDS011;46574;52.818;6.516;2023-05-07T00:16:57;12.52;;;11.18;;
60722;SDS011;46574;52.818;6.516;2023-05-07T00:19:23;11.40;;;10.13;;
60722;SDS011;46574;52.818;6.516;2023-05-07T00:21:49;12.60;;;11.32;;
60722;SDS011;46574;52.818;6.516;2023-05-07T00:24:14;13.10;;;11.00;;
60722;SDS011;46574;52.818;6.516;2023-05-07T00:26:40;12.23;;;10.07;;
60722;SDS011;46574;52.818;6.516;2023-05-07T00:29:05;10.73;;;9.63;;
60722;SDS011;46574;52.818;6.516;2023-05-07T00:31:31;11.88;;;10.68;;
60722;SDS011;46574;52.818;6.516;2023-05-07T00:33:57;12.98;;;11.43;;
60722;SDS011;46574;52.818;6.516;2023-05-07T00:36:22;13.55;;;11.00;;
60722;SDS011;46574;52.818;6.516;2023-05-07T00:38:48;12.30;;;11.00;;
60722;SDS011;46574;52.818;6.516;2023-05-07T00:41:13;12.40;;;11.10;;
60722;SDS011;46574;52.818;6.516;2023-05-07T00:43:40;11.32;;;10.15;;
60722;SDS011;46574;52.818;6.516;2023-05-07T00:46:05;12.40;;;11.20;;
60722;SDS011;46574;52.818;6.516;2023-05-07T00:48:31;13.90;;;12.40;;
60722;SDS011;46574;52.818;6.516;2023-05-07T00:50:57;14.00;;;12.60;;
60722;SDS011;46574;52.818;6.516;2023-05-07T00:53:22;13.63;;;12.10;;
60722;SDS011;46574;52.818;6.516;2023-05-07T00:55:48;13.20;;;11.75;;
60722;SDS011;46574;52.818;6.516;2023-05-07T00:58:14;14.50;;;13.00;;
60722;SDS011;46574;52.818;6.516;2023-05-07T01:00:40;13.70;;;12.27;;
60722;SDS011;46574;52.818;6.516;2023-05-07T01:03:05;11.70;;;10.50;;
60722;SDS011;46574;52.818;6.516;2023-05-07T01:05:31;12.65;;;11.30;;
60722;SDS011;46574;52.818;6.516;2023-05-07T01:07:57;13.27;;;11.88;;
60722;SDS011;46574;52.818;6.516;2023-05-07T01:10:24;13.35;;;12.05;;
60722;SDS011;46574;52.818;6.516;2023-05-07T01:12:50;16.58;;;14.98;;
60722;SDS011;46574;52.818;6.516;2023-05-07T01:15:17;17.52;;;15.82;;
60722;SDS011;46574;52.818;6.516;2023-05-07T01:17:43;16.98;;;14.75;;
60722;SDS011;46574;52.818;6.516;2023-05-07T01:20:09;16.77;;;15.07;;
60722;SDS011;46574;52.818;6.516;2023-05-07T01:22:36;15.20;;;13.70;;
60722;SDS011;46574;52.818;6.516;2023-05-07T01:25:03;18.75;;;16.63;;
60722;SDS011;46574;52.818;6.516;2023-05-07T01:27:33;18.08;;;16.13;;
60722;SDS011;46574;52.818;6.516;2023-05-07T01:30:00;16.00;;;14.30;;
60722;SDS011;46574;52.818;6.516;2023-05-07T01:32:32;18.48;;;16.58;;
60722;SDS011;46574;52.818;6.516;2023-05-07T01:35:02;17.92;;;16.23;;
60722;SDS011;46574;52.818;6.516;2023-05-07T01:37:32;21.02;;;18.92;;
60722;SDS011;46574;52.818;6.516;2023-05-07T01:39:58;18.35;;;16.50;;
60722;SDS011;46574;52.818;6.516;2023-05-07T01:42:24;18.77;;;16.80;;
60722;SDS011;46574;52.818;6.516;2023-05-07T01:44:50;18.50;;;16.70;;
60722;SDS011;46574;52.818;6.516;2023-05-07T01:47:16;19.90;;;17.75;;
60722;SDS011;46574;52.818;6.516;2023-05-07T01:49:42;20.40;;;18.05;;
60722;SDS011;46574;52.818;6.516;2023-05-07T01:52:09;17.70;;;15.77;;
60722;SDS011;46574;52.818;6.516;2023-05-07T01:54:36;20.27;;;17.70;;
60722;SDS011;46574;52.818;6.516;2023-05-07T01:57:02;24.08;;;19.50;;
60722;SDS011;46574;52.818;6.516;2023-05-07T01:59:28;19.20;;;17.30;;
60722;SDS011;46574;52.818;6.516;2023-05-07T02:01:53;20.90;;;18.67;;
60722;SDS011;46574;52.818;6.516;2023-05-07T02:04:19;21.40;;;19.17;;
60722;SDS011;46574;52.818;6.516;2023-05-07T02:06:44;21.90;;;19.45;;
60722;SDS011;46574;52.818;6.516;2023-05-07T02:09:10;21.95;;;19.55;;
60722;SDS011;46574;52.818;6.516;2023-05-07T02:11:36;22.52;;;20.23;;
60722;SDS011;46574;52.818;6.516;2023-05-07T02:14:02;23.20;;;20.70;;
60722;SDS011;46574;52.818;6.516;2023-05-07T02:16:27;23.63;;;21.13;;
60722;SDS011;46574;52.818;6.516;2023-05-07T02:18:53;20.80;;;18.70;;
60722;SDS011;46574;52.818;6.516;2023-05-07T02:21:18;23.35;;;20.92;;
60722;SDS011;46574;52.818;6.516;2023-05-07T02:23:44;23.52;;;20.33;;
60722;SDS011;46574;52.818;6.516;2023-05-07T02:26:10;22.02;;;19.70;;
60722;SDS011;46574;52.818;6.516;2023-05-07T02:28:36;23.88;;;21.45;;
60722;SDS011;46574;52.818;6.516;2023-05-07T02:31:02;24.15;;;20.95;;
60722;SDS011;46574;52.818;6.516;2023-05-07T02:33:28;22.13;;;19.73;;
60722;SDS011;46574;52.818;6.516;2023-05-07T02:35:54;23.77;;;20.98;;
60722;SDS011;46574;52.818;6.516;2023-05-07T02:38:20;21.33;;;19.13;;
60722;SDS011;46574;52.818;6.516;2023-05-07T02:40:46;22.65;;;19.95;;
60722;SDS011;46574;52.818;6.516;2023-05-07T02:43:11;26.00;;;21.27;;
60722;SDS011;46574;52.818;6.516;2023-05-07T02:45:37;24.17;;;21.58;;
60722;SDS011;46574;52.818;6.516;2023-05-07T02:48:03;24.70;;;21.17;;
60722;SDS011;46574;52.818;6.516;2023-05-07T02:50:30;24.23;;;21.30;;
60722;SDS011;46574;52.818;6.516;2023-05-07T02:52:57;27.52;;;22.88;;
60722;SDS011;46574;52.818;6.516;2023-05-07T02:55:23;24.58;;;21.33;;
60722;SDS011;46574;52.818;6.516;2023-05-07T02:57:49;24.95;;;21.17;;
60722;SDS011;46574;52.818;6.516;2023-05-07T03:00:15;26.15;;;22.80;;
60722;SDS011;46574;52.818;6.516;2023-05-07T03:02:43;30.02;;;23.08;;
60722;SDS011;46574;52.818;6.516;2023-05-07T03:05:10;26.15;;;22.50;;
60722;SDS011;46574;52.818;6.516;2023-05-07T03:07:36;24.58;;;21.67;;
60722;SDS011;46574;52.818;6.516;2023-05-07T03:10:03;27.90;;;24.17;;
60722;SDS011;46574;52.818;6.516;2023-05-07T03:12:29;25.67;;;22.95;;
60722;SDS011;46574;52.818;6.516;2023-05-07T03:14:56;28.27;;;24.45;;
60722;SDS011;46574;52.818;6.516;2023-05-07T03:17:22;29.88;;;24.02;;
60722;SDS011;46574;52.818;6.516;2023-05-07T03:19:47;31.30;;;25.45;;
60722;SDS011;46574;52.818;6.516;2023-05-07T03:22:13;28.98;;;23.73;;
60722;SDS011;46574;52.818;6.516;2023-05-07T03:24:39;30.38;;;24.40;;
60722;SDS011;46574;52.818;6.516;2023-05-07T03:27:05;31.90;;;25.67;;
60722;SDS011;46574;52.818;6.516;2023-05-07T03:29:30;32.72;;;25.13;;
60722;SDS011;46574;52.818;6.516;2023-05-07T03:31:56;28.88;;;23.58;;
60722;SDS011;46574;52.818;6.516;2023-05-07T03:34:21;36.58;;;26.80;;
60722;SDS011;46574;52.818;6.516;2023-05-07T03:36:50;34.80;;;28.13;;
60722;SDS011;46574;52.818;6.516;2023-05-07T03:39:16;31.13;;;26.52;;
60722;SDS011;46574;52.818;6.516;2023-05-07T03:41:41;33.80;;;27.83;;
60722;SDS011;46574;52.818;6.516;2023-05-07T03:44:07;33.53;;;27.45;;
60722;SDS011;46574;52.818;6.516;2023-05-07T03:46:33;30.63;;;25.02;;
60722;SDS011;46574;52.818;6.516;2023-05-07T03:48:59;32.90;;;27.17;;
60722;SDS011;46574;52.818;6.516;2023-05-07T03:51:25;32.50;;;26.15;;
60722;SDS011;46574;52.818;6.516;2023-05-07T03:53:51;35.85;;;28.45;;
60722;SDS011;46574;52.818;6.516;2023-05-07T03:56:19;33.67;;;26.75;;
60722;SDS011;46574;52.818;6.516;2023-05-07T03:58:46;32.95;;;27.55;;
60722;SDS011;46574;52.818;6.516;2023-05-07T04:01:12;36.70;;;28.40;;
60722;SDS011;46574;52.818;6.516;2023-05-07T04:03:38;32.60;;;26.35;;
60722;SDS011;46574;52.818;6.516;2023-05-07T04:06:04;37.92;;;27.70;;
60722;SDS011;46574;52.818;6.516;2023-05-07T04:08:29;39.58;;;29.90;;
60722;SDS011;46574;52.818;6.516;2023-05-07T04:10:56;33.10;;;28.48;;
60722;SDS011;46574;52.818;6.516;2023-05-07T04:13:22;36.40;;;28.52;;
60722;SDS011;46574;52.818;6.516;2023-05-07T04:15:47;34.67;;;26.65;;
60722;SDS011;46574;52.818;6.516;2023-05-07T04:18:14;31.10;;;26.45;;
60722;SDS011;46574;52.818;6.516;2023-05-07T04:20:40;38.00;;;29.13;;
60722;SDS011;46574;52.818;6.516;2023-05-07T04:23:06;38.97;;;29.35;;
60722;SDS011;46574;52.818;6.516;2023-05-07T04:25:32;33.72;;;26.58;;
60722;SDS011;46574;52.818;6.516;2023-05-07T04:27:58;36.08;;;27.70;;
60722;SDS011;46574;52.818;6.516;2023-05-07T04:30:24;36.38;;;28.13;;
60722;SDS011;46574;52.818;6.516;2023-05-07T04:32:49;35.75;;;28.08;;
60722;SDS011;46574;52.818;6.516;2023-05-07T04:35:15;34.17;;;26.70;;
60722;SDS011;46574;52.818;6.516;2023-05-07T04:37:41;36.67;;;29.63;;
60722;SDS011;46574;52.818;6.516;2023-05-07T04:40:07;34.13;;;28.08;;
60722;SDS011;46574;52.818;6.516;2023-05-07T04:42:33;36.53;;;29.10;;
60722;SDS011;46574;52.818;6.516;2023-05-07T04:44:58;33.97;;;27.98;;
60722;SDS011;46574;52.818;6.516;2023-05-07T04:47:25;37.90;;;29.20;;
60722;SDS011;46574;52.818;6.516;2023-05-07T04:49:50;35.20;;;28.25;;
60722;SDS011;46574;52.818;6.516;2023-05-07T04:52:16;32.45;;;27.73;;
60722;SDS011;46574;52.818;6.516;2023-05-07T04:54:42;37.38;;;29.60;;
60722;SDS011;46574;52.818;6.516;2023-05-07T04:57:07;37.13;;;26.58;;
60722;SDS011;46574;52.818;6.516;2023-05-07T04:59:33;29.42;;;24.15;;
60722;SDS011;46574;52.818;6.516;2023-05-07T05:01:59;31.98;;;27.08;;
60722;SDS011;46574;52.818;6.516;2023-05-07T05:04:24;31.20;;;26.33;;
60722;SDS011;46574;52.818;6.516;2023-05-07T05:06:50;35.10;;;27.83;;
60722;SDS011;46574;52.818;6.516;2023-05-07T05:09:16;34.05;;;27.88;;
60722;SDS011;46574;52.818;6.516;2023-05-07T05:11:41;34.38;;;28.17;;
60722;SDS011;46574;52.818;6.516;2023-05-07T05:14:07;31.20;;;26.17;;
60722;SDS011;46574;52.818;6.516;2023-05-07T05:16:33;30.58;;;25.98;;
60722;SDS011;46574;52.818;6.516;2023-05-07T05:18:59;31.85;;;25.77;;
60722;SDS011;46574;52.818;6.516;2023-05-07T05:21:24;30.35;;;25.10;;
60722;SDS011;46574;52.818;6.516;2023-05-07T05:23:50;31.27;;;25.92;;
60722;SDS011;46574;52.818;6.516;2023-05-07T05:26:16;29.35;;;25.38;;
60722;SDS011;46574;52.818;6.516;2023-05-07T05:28:42;30.05;;;25.17;;
60722;SDS011;46574;52.818;6.516;2023-05-07T05:31:08;31.17;;;26.08;;
60722;SDS011;46574;52.818;6.516;2023-05-07T05:33:33;29.55;;;24.50;;
60722;SDS011;46574;52.818;6.516;2023-05-07T05:36:00;30.42;;;26.70;;
60722;SDS011;46574;52.818;6.516;2023-05-07T05:38:26;31.73;;;25.20;;
60722;SDS011;46574;52.818;6.516;2023-05-07T05:40:51;29.00;;;25.73;;
60722;SDS011;46574;52.818;6.516;2023-05-07T05:43:17;29.58;;;24.50;;
60722;SDS011;46574;52.818;6.516;2023-05-07T05:45:42;32.75;;;26.73;;
60722;SDS011;46574;52.818;6.516;2023-05-07T05:48:08;30.15;;;26.77;;
60722;SDS011;46574;52.818;6.516;2023-05-07T05:50:34;29.67;;;24.88;;
60722;SDS011;46574;52.818;6.516;2023-05-07T05:53:01;29.67;;;24.63;;
60722;SDS011;46574;52.818;6.516;2023-05-07T05:55:27;27.70;;;23.90;;
60722;SDS011;46574;52.818;6.516;2023-05-07T05:57:53;30.17;;;24.73;;
60722;SDS011;46574;52.818;6.516;2023-05-07T06:00:19;28.63;;;23.35;;
60722;SDS011;46574;52.818;6.516;2023-05-07T06:02:47;25.70;;;22.88;;
60722;SDS011;46574;52.818;6.516;2023-05-07T06:05:13;29.85;;;25.05;;
60722;SDS011;46574;52.818;6.516;2023-05-07T06:07:40;27.55;;;24.48;;
60722;SDS011;46574;52.818;6.516;2023-05-07T06:10:06;27.95;;;25.02;;
60722;SDS011;46574;52.818;6.516;2023-05-07T06:12:32;29.63;;;24.45;;
60722;SDS011;46574;52.818;6.516;2023-05-07T06:14:57;24.83;;;22.10;;
60722;SDS011;46574;52.818;6.516;2023-05-07T06:17:23;26.50;;;23.33;;
60722;SDS011;46574;52.818;6.516;2023-05-07T06:19:48;28.60;;;23.63;;
60722;SDS011;46574;52.818;6.516;2023-05-07T06:22:14;26.95;;;23.65;;
60722;SDS011;46574;52.818;6.516;2023-05-07T06:24:40;26.48;;;23.35;;
60722;SDS011;46574;52.818;6.516;2023-05-07T06:27:05;28.05;;;24.80;;
60722;SDS011;46574;52.818;6.516;2023-05-07T06:29:31;28.67;;;25.30;;
60722;SDS011;46574;52.818;6.516;2023-05-07T06:32:08;28.55;;;22.88;;
60722;SDS011;46574;52.818;6.516;2023-05-07T06:34:37;27.08;;;23.40;;
60722;SDS011;46574;52.818;6.516;2023-05-07T06:37:03;27.67;;;23.88;;
60722;SDS011;46574;52.818;6.516;2023-05-07T06:39:29;30.83;;;25.65;;
60722;SDS011;46574;52.818;6.516;2023-05-07T06:41:54;32.00;;;26.30;;
60722;SDS011;46574;52.818;6.516;2023-05-07T06:44:20;32.13;;;25.80;;
60722;SDS011;46574;52.818;6.516;2023-05-07T06:46:46;30.05;;;24.65;;
60722;SDS011;46574;52.818;6.516;2023-05-07T06:49:12;30.30;;;23.98;;
60722;SDS011;46574;52.818;6.516;2023-05-07T06:51:38;29.10;;;25.17;;
60722;SDS011;46574;52.818;6.516;2023-05-07T06:54:04;29.02;;;24.88;;
60722;SDS011;46574;52.818;6.516;2023-05-07T06:56:30;31.48;;;27.23;;
60722;SDS011;46574;52.818;6.516;2023-05-07T06:58:56;30.13;;;26.27;;
60722;SDS011;46574;52.818;6.516;2023-05-07T07:01:21;33.88;;;27.50;;
60722;SDS011;46574;52.818;6.516;2023-05-07T07:03:47;33.17;;;26.85;;
60722;SDS011;46574;52.818;6.516;2023-05-07T07:06:13;31.17;;;26.55;;
60722;SDS011;46574;52.818;6.516;2023-05-07T07:08:38;33.08;;;27.05;;
60722;SDS011;46574;52.818;6.516;2023-05-07T07:11:07;32.28;;;26.17;;
60722;SDS011;46574;52.818;6.516;2023-05-07T07:13:33;32.45;;;27.02;;
60722;SDS011;46574;52.818;6.516;2023-05-07T07:15:59;31.15;;;25.73;;
60722;SDS011;46574;52.818;6.516;2023-05-07T07:18:25;30.33;;;26.02;;
60722;SDS011;46574;52.818;6.516;2023-05-07T07:20:51;30.30;;;24.98;;
60722;SDS011;46574;52.818;6.516;2023-05-07T07:23:16;33.63;;;27.92;;
60722;SDS011;46574;52.818;6.516;2023-05-07T07:25:42;33.13;;;26.83;;
60722;SDS011;46574;52.818;6.516;2023-05-07T07:28:08;30.25;;;25.00;;
60722;SDS011;46574;52.818;6.516;2023-05-07T07:30:33;33.15;;;26.40;;
60722;SDS011;46574;52.818;6.516;2023-05-07T07:32:59;31.63;;;27.15;;
60722;SDS011;46574;52.818;6.516;2023-05-07T07:35:33;28.20;;;24.98;;
60722;SDS011;46574;52.818;6.516;2023-05-07T07:37:59;31.92;;;26.42;;
60722;SDS011;46574;52.818;6.516;2023-05-07T07:40:25;30.90;;;26.42;;
60722;SDS011;46574;52.818;6.516;2023-05-07T07:42:51;34.40;;;27.92;;
60722;SDS011;46574;52.818;6.516;2023-05-07T07:45:17;30.58;;;26.77;;
60722;SDS011;46574;52.818;6.516;2023-05-07T07:47:43;32.35;;;27.25;;
60722;SDS011;46574;52.818;6.516;2023-05-07T07:50:09;32.72;;;26.55;;
60722;SDS011;46574;52.818;6.516;2023-05-07T07:52:35;31.88;;;26.85;;
60722;SDS011;46574;52.818;6.516;2023-05-07T07:55:01;31.75;;;26.45;;
60722;SDS011;46574;52.818;6.516;2023-05-07T07:57:27;34.40;;;27.52;;
60722;SDS011;46574;52.818;6.516;2023-05-07T07:59:52;31.88;;;27.13;;
60722;SDS011;46574;52.818;6.516;2023-05-07T08:02:18;34.75;;;27.15;;
60722;SDS011;46574;52.818;6.516;2023-05-07T08:04:44;31.80;;;26.65;;
60722;SDS011;46574;52.818;6.516;2023-05-07T08:07:10;34.97;;;28.83;;
60722;SDS011;46574;52.818;6.516;2023-05-07T08:09:39;31.48;;;27.48;;
60722;SDS011;46574;52.818;6.516;2023-05-07T08:12:05;32.65;;;27.10;;
60722;SDS011;46574;52.818;6.516;2023-05-07T08:14:31;34.13;;;29.20;;
60722;SDS011;46574;52.818;6.516;2023-05-07T08:16:57;35.08;;;28.33;;
60722;SDS011;46574;52.818;6.516;2023-05-07T08:19:23;33.42;;;27.27;;
60722;SDS011;46574;52.818;6.516;2023-05-07T08:21:49;32.78;;;29.02;;
60722;SDS011;46574;52.818;6.516;2023-05-07T08:24:15;31.90;;;26.50;;
60722;SDS011;46574;52.818;6.516;2023-05-07T08:26:41;33.90;;;27.50;;
60722;SDS011;46574;52.818;6.516;2023-05-07T08:29:08;34.17;;;28.70;;
60722;SDS011;46574;52.818;6.516;2023-05-07T08:31:34;33.40;;;26.77;;
60722;SDS011;46574;52.818;6.516;2023-05-07T08:34:00;33.05;;;27.83;;
60722;SDS011;46574;52.818;6.516;2023-05-07T08:36:26;31.80;;;25.80;;
60722;SDS011;46574;52.818;6.516;2023-05-07T08:38:52;33.88;;;26.45;;
60722;SDS011;46574;52.818;6.516;2023-05-07T08:41:18;31.48;;;27.25;;
60722;SDS011;46574;52.818;6.516;2023-05-07T08:43:47;30.13;;;25.60;;
60722;SDS011;46574;52.818;6.516;2023-05-07T08:46:18;32.95;;;27.27;;
60722;SDS011;46574;52.818;6.516;2023-05-07T08:48:50;32.15;;;26.15;;
60722;SDS011;46574;52.818;6.516;2023-05-07T08:51:17;32.20;;;26.95;;
60722;SDS011;46574;52.818;6.516;2023-05-07T08:53:44;34.63;;;27.77;;
60722;SDS011;46574;52.818;6.516;2023-05-07T08:56:11;29.90;;;25.85;;
60722;SDS011;46574;52.818;6.516;2023-05-07T08:58:37;30.48;;;24.88;;
60722;SDS011;46574;52.818;6.516;2023-05-07T09:01:03;30.20;;;25.88;;
60722;SDS011;46574;52.818;6.516;2023-05-07T09:03:35;27.63;;;24.70;;
60722;SDS011;46574;52.818;6.516;2023-05-07T09:06:02;31.30;;;26.60;;
60722;SDS011;46574;52.818;6.516;2023-05-07T09:08:28;31.17;;;26.00;;
60722;SDS011;46574;52.818;6.516;2023-05-07T09:10:53;31.40;;;26.55;;
60722;SDS011;46574;52.818;6.516;2023-05-07T09:13:19;30.13;;;26.23;;
60722;SDS011;46574;52.818;6.516;2023-05-07T09:15:45;30.00;;;25.98;;
60722;SDS011;46574;52.818;6.516;2023-05-07T09:18:12;31.13;;;27.65;;
60722;SDS011;46574;52.818;6.516;2023-05-07T09:20:38;29.25;;;26.02;;
60722;SDS011;46574;52.818;6.516;2023-05-07T09:23:05;29.00;;;24.65;;
60722;SDS011;46574;52.818;6.516;2023-05-07T09:25:32;31.33;;;26.52;;
60722;SDS011;46574;52.818;6.516;2023-05-07T09:28:02;25.60;;;22.90;;
60722;SDS011;46574;52.818;6.516;2023-05-07T09:30:29;29.45;;;26.02;;
60722;SDS011;46574;52.818;6.516;2023-05-07T09:32:57;28.45;;;25.40;;
60722;SDS011;46574;52.818;6.516;2023-05-07T09:35:24;33.38;;;26.50;;
60722;SDS011;46574;52.818;6.516;2023-05-07T09:37:55;29.65;;;25.55;;
60722;SDS011;46574;52.818;6.516;2023-05-07T09:40:26;30.35;;;26.92;;
60722;SDS011;46574;52.818;6.516;2023-05-07T09:42:53;30.02;;;25.65;;
60722;SDS011;46574;52.818;6.516;2023-05-07T09:45:28;27.70;;;24.83;;
60722;SDS011;46574;52.818;6.516;2023-05-07T09:47:55;29.85;;;26.15;;
60722;SDS011;46574;52.818;6.516;2023-05-07T09:50:28;28.20;;;24.83;;
60722;SDS011;46574;52.818;6.516;2023-05-07T09:52:57;27.52;;;24.55;;
60722;SDS011;46574;52.818;6.516;2023-05-07T09:55:25;29.30;;;25.42;;
60722;SDS011;46574;52.818;6.516;2023-05-07T09:57:51;26.50;;;23.30;;
60722;SDS011;46574;52.818;6.516;2023-05-07T10:00:18;26.38;;;23.58;;
60722;SDS011;46574;52.818;6.516;2023-05-07T10:02:50;24.60;;;22.02;;
60722;SDS011;46574;52.818;6.516;2023-05-07T10:05:21;26.83;;;23.98;;
60722;SDS011;46574;52.818;6.516;2023-05-07T10:07:47;26.63;;;23.90;;
60722;SDS011;46574;52.818;6.516;2023-05-07T10:10:14;27.48;;;23.70;;
60722;SDS011;46574;52.818;6.516;2023-05-07T10:12:40;25.90;;;23.15;;
60722;SDS011;46574;52.818;6.516;2023-05-07T10:15:07;25.42;;;22.83;;
60722;SDS011;46574;52.818;6.516;2023-05-07T10:17:37;28.98;;;25.88;;
60722;SDS011;46574;52.818;6.516;2023-05-07T10:20:04;24.25;;;21.75;;
60722;SDS011;46574;52.818;6.516;2023-05-07T10:22:32;25.45;;;22.77;;
60722;SDS011;46574;52.818;6.516;2023-05-07T10:25:03;28.48;;;25.55;;
60722;SDS011;46574;52.818;6.516;2023-05-07T10:27:39;25.85;;;23.15;;
60722;SDS011;46574;52.818;6.516;2023-05-07T10:30:09;25.02;;;22.52;;
60722;SDS011;46574;52.818;6.516;2023-05-07T10:32:47;25.00;;;22.40;;
60722;SDS011;46574;52.818;6.516;2023-05-07T10:35:23;27.92;;;25.00;;
60722;SDS011;46574;52.818;6.516;2023-05-07T10:37:51;25.98;;;23.40;;
60722;SDS011;46574;52.818;6.516;2023-05-07T10:40:17;25.35;;;22.75;;
60722;SDS011;46574;52.818;6.516;2023-05-07T10:42:54;24.00;;;21.60;;
60722;SDS011;46574;52.818;6.516;2023-05-07T10:45:22;22.75;;;20.52;;
60722;SDS011;46574;52.818;6.516;2023-05-07T10:50:32;21.95;;;19.60;;
60722;SDS011;46574;52.818;6.516;2023-05-07T10:55:42;25.38;;;22.85;;
60722;SDS011;46574;52.818;6.516;2023-05-07T11:00:46;24.83;;;22.33;;
60722;SDS011;46574;52.818;6.516;2023-05-07T11:03:12;23.38;;;20.98;;
60722;SDS011;46574;52.818;6.516;2023-05-07T11:05:40;22.85;;;20.55;;
60722;SDS011;46574;52.818;6.516;2023-05-07T11:08:06;25.50;;;22.85;;
60722;SDS011;46574;52.818;6.516;2023-05-07T11:10:52;23.77;;;21.48;;
60722;SDS011;46574;52.818;6.516;2023-05-07T11:16:21;21.75;;;19.55;;
60722;SDS011;46574;52.818;6.516;2023-05-07T11:18:55;22.73;;;20.42;;
60722;SDS011;46574;52.818;6.516;2023-05-07T11:21:54;24.45;;;21.80;;
60722;SDS011;46574;52.818;6.516;2023-05-07T11:24:13;23.50;;;21.15;;
60722;SDS011;46574;52.818;6.516;2023-05-07T11:26:45;21.98;;;19.65;;
60722;SDS011;46574;52.818;6.516;2023-05-07T11:29:19;22.27;;;20.17;;
60722;SDS011;46574;52.818;6.516;2023-05-07T11:31:53;20.42;;;18.40;;
60722;SDS011;46574;52.818;6.516;2023-05-07T11:34:21;22.15;;;19.95;;
60722;SDS011;46574;52.818;6.516;2023-05-07T11:36:51;22.52;;;20.33;;
60722;SDS011;46574;52.818;6.516;2023-05-07T11:39:31;21.55;;;19.45;;
60722;SDS011;46574;52.818;6.516;2023-05-07T11:42:01;22.55;;;20.25;;
60722;SDS011;46574;52.818;6.516;2023-05-07T11:44:42;21.42;;;19.33;;
60722;SDS011;46574;52.818;6.516;2023-05-07T11:47:11;19.67;;;17.58;;
60722;SDS011;46574;52.818;6.516;2023-05-07T11:49:42;21.50;;;19.33;;
60722;SDS011;46574;52.818;6.516;2023-05-07T11:52:09;20.35;;;18.35;;
60722;SDS011;46574;52.818;6.516;2023-05-07T11:54:35;20.30;;;18.30;;
60722;SDS011;46574;52.818;6.516;2023-05-07T11:57:02;20.33;;;18.33;;
60722;SDS011;46574;52.818;6.516;2023-05-07T11:59:27;20.38;;;18.38;;
60722;SDS011;46574;52.818;6.516;2023-05-07T12:01:56;20.00;;;18.10;;
60722;SDS011;46574;52.818;6.516;2023-05-07T12:04:22;20.23;;;18.20;;
60722;SDS011;46574;52.818;6.516;2023-05-07T12:06:48;19.58;;;17.58;;
60722;SDS011;46574;52.818;6.516;2023-05-07T12:09:15;21.63;;;19.52;;
60722;SDS011;46574;52.818;6.516;2023-05-07T12:11:42;22.67;;;20.48;;
60722;SDS011;46574;52.818;6.516;2023-05-07T12:14:11;19.67;;;17.75;;
60722;SDS011;46574;52.818;6.516;2023-05-07T12:16:36;19.45;;;17.63;;
60722;SDS011;46574;52.818;6.516;2023-05-07T12:19:04;21.13;;;18.93;;
60722;SDS011;46574;52.818;6.516;2023-05-07T12:21:31;19.83;;;17.90;;
60722;SDS011;46574;52.818;6.516;2023-05-07T12:23:58;18.17;;;16.55;;
60722;SDS011;46574;52.818;6.516;2023-05-07T12:26:24;20.02;;;18.13;;
60722;SDS011;46574;52.818;6.516;2023-05-07T12:28:49;17.83;;;16.02;;
60722;SDS011;46574;52.818;6.516;2023-05-07T12:31:15;17.85;;;16.15;;
60722;SDS011;46574;52.818;6.516;2023-05-07T12:33:41;17.98;;;16.27;;
60722;SDS011;46574;52.818;6.516;2023-05-07T12:36:07;16.83;;;15.23;;
60722;SDS011;46574;52.818;6.516;2023-05-07T12:38:37;16.50;;;14.90;;
60722;SDS011;46574;52.818;6.516;2023-05-07T12:41:04;18.40;;;16.52;;
60722;SDS011;46574;52.818;6.516;2023-05-07T12:43:32;17.77;;;15.98;;
60722;SDS011;46574;52.818;6.516;2023-05-07T12:46:03;19.98;;;17.98;;
60722;SDS011;46574;52.818;6.516;2023-05-07T12:48:30;19.45;;;17.45;;
60722;SDS011;46574;52.818;6.516;2023-05-07T12:50:57;19.17;;;17.17;;
60722;SDS011;46574;52.818;6.516;2023-05-07T12:53:25;18.35;;;16.65;;
60722;SDS011;46574;52.818;6.516;2023-05-07T12:55:52;19.10;;;17.23;;
60722;SDS011;46574;52.818;6.516;2023-05-07T13:00:49;17.98;;;16.17;;
60722;SDS011;46574;52.818;6.516;2023-05-07T13:05:49;20.27;;;18.35;;
60722;SDS011;46574;52.818;6.516;2023-05-07T13:08:29;18.45;;;16.60;;
60722;SDS011;46574;52.818;6.516;2023-05-07T13:10:57;18.70;;;16.92;;
60722;SDS011;46574;52.818;6.516;2023-05-07T13:13:24;19.85;;;17.80;;
60722;SDS011;46574;52.818;6.516;2023-05-07T13:15:50;18.88;;;17.15;;
60722;SDS011;46574;52.818;6.516;2023-05-07T13:18:15;18.88;;;17.05;;
60722;SDS011;46574;52.818;6.516;2023-05-07T13:20:41;18.58;;;16.77;;
60722;SDS011;46574;52.818;6.516;2023-05-07T13:23:07;18.95;;;17.15;;
60722;SDS011;46574;52.818;6.516;2023-05-07T13:25:33;19.00;;;17.00;;
60722;SDS011;46574;52.818;6.516;2023-05-07T13:27:59;18.27;;;16.58;;
60722;SDS011;46574;52.818;6.516;2023-05-07T13:30:24;17.58;;;15.93;;
60722;SDS011;46574;52.818;6.516;2023-05-07T13:32:51;17.60;;;16.00;;
60722;SDS011;46574;52.818;6.516;2023-05-07T13:35:20;17.73;;;16.02;;
60722;SDS011;46574;52.818;6.516;2023-05-07T13:37:46;17.65;;;15.95;;
60722;SDS011;46574;52.818;6.516;2023-05-07T13:40:13;17.92;;;16.23;;
60722;SDS011;46574;52.818;6.516;2023-05-07T13:42:39;18.00;;;16.25;;
60722;SDS011;46574;52.818;6.516;2023-05-07T13:45:05;15.75;;;14.23;;
60722;SDS011;46574;52.818;6.516;2023-05-07T13:47:31;19.05;;;17.25;;
60722;SDS011;46574;52.818;6.516;2023-05-07T13:49:56;19.13;;;17.33;;
60722;SDS011;46574;52.818;6.516;2023-05-07T13:52:22;19.17;;;17.40;;
60722;SDS011;46574;52.818;6.516;2023-05-07T13:54:47;20.85;;;19.05;;
60722;SDS011;46574;52.818;6.516;2023-05-07T13:57:13;18.77;;;17.10;;
60722;SDS011;46574;52.818;6.516;2023-05-07T13:59:39;20.75;;;18.92;;
60722;SDS011;46574;52.818;6.516;2023-05-07T14:02:05;19.25;;;17.48;;
60722;SDS011;46574;52.818;6.516;2023-05-07T14:04:31;19.00;;;17.25;;
60722;SDS011;46574;52.818;6.516;2023-05-07T14:06:57;19.27;;;17.58;;
60722;SDS011;46574;52.818;6.516;2023-05-07T14:09:22;18.48;;;16.77;;
60722;SDS011;46574;52.818;6.516;2023-05-07T14:11:48;16.85;;;15.32;;
60722;SDS011;46574;52.818;6.516;2023-05-07T14:14:16;18.60;;;16.80;;
60722;SDS011;46574;52.818;6.516;2023-05-07T14:16:42;19.90;;;18.08;;
60722;SDS011;46574;52.818;6.516;2023-05-07T14:19:08;18.45;;;16.65;;
60722;SDS011;46574;52.818;6.516;2023-05-07T14:21:33;19.92;;;18.10;;
60722;SDS011;46574;52.818;6.516;2023-05-07T14:23:59;21.02;;;18.92;;
60722;SDS011;46574;52.818;6.516;2023-05-07T14:26:25;18.30;;;16.70;;
60722;SDS011;46574;52.818;6.516;2023-05-07T14:28:52;19.10;;;17.40;;
60722;SDS011;46574;52.818;6.516;2023-05-07T14:31:20;17.47;;;15.97;;
60722;SDS011;46574;52.818;6.516;2023-05-07T14:33:46;17.05;;;15.65;;
60722;SDS011;46574;52.818;6.516;2023-05-07T14:36:11;17.02;;;15.57;;